createdAt,value
2018-04-25T00:00:43.651Z,6.07
2018-04-25T00:03:11.088Z,5.80
2018-04-25T00:05:38.539Z,6.33
2018-04-25T00:08:05.980Z,6.60
2018-04-25T00:10:34.200Z,6.60
2018-04-25T00:13:01.640Z,6.17
2018-04-25T00:15:29.109Z,7.73
2018-04-25T00:17:56.538Z,6.83
2018-04-25T00:20:24.010Z,6.07
2018-04-25T00:22:51.443Z,6.10
2018-04-25T00:25:19.654Z,5.00
2018-04-25T00:27:47.096Z,6.03
2018-04-25T00:30:14.542Z,5.17
2018-04-25T00:32:41.984Z,6.60
2018-04-25T00:35:10.203Z,5.43
2018-04-25T00:37:37.648Z,5.67
2018-04-25T00:40:05.104Z,5.57
2018-04-25T00:42:32.540Z,6.27
2018-04-25T00:45:00.766Z,5.77
2018-04-25T00:47:28.199Z,6.27
2018-04-25T00:49:55.643Z,6.30
2018-04-25T00:52:23.108Z,6.33
2018-04-25T00:54:50.558Z,6.03
2018-04-25T00:57:18.016Z,6.50
2018-04-25T00:59:45.448Z,6.23
2018-04-25T01:02:13.663Z,6.37
2018-04-25T01:04:41.108Z,5.70
2018-04-25T01:07:08.562Z,6.20
2018-04-25T01:09:36.003Z,6.37
2018-04-25T01:12:04.226Z,6.07
2018-04-25T01:14:31.666Z,6.60
2018-04-25T01:16:59.124Z,5.90
2018-04-25T01:19:26.556Z,6.10
2018-04-25T01:21:54.771Z,6.00
2018-04-25T01:24:22.215Z,5.40
2018-04-25T01:26:51.466Z,6.40
2018-04-25T01:29:20.555Z,5.53
2018-04-25T01:31:48.804Z,6.37
2018-04-25T01:34:18.892Z,6.40
2018-04-25T01:36:50.047Z,6.20
2018-04-25T01:39:20.206Z,6.90
2018-04-25T01:41:47.656Z,5.80
2018-04-25T01:44:21.914Z,6.57
2018-04-25T01:46:51.938Z,6.10
2018-04-25T01:49:38.943Z,6.10
2018-04-25T01:52:19.192Z,5.17
2018-04-25T01:54:59.327Z,5.93
2018-04-25T01:57:38.742Z,6.47
2018-04-25T02:00:18.059Z,6.23
2018-04-25T02:02:45.024Z,6.00
2018-04-25T02:05:12.476Z,5.80
2018-04-25T02:07:39.935Z,5.50
2018-04-25T02:10:07.370Z,5.57
2018-04-25T02:12:34.828Z,5.87
2018-04-25T02:15:02.272Z,6.20
2018-04-25T02:17:29.722Z,5.70
2018-04-25T02:19:57.165Z,5.63
2018-04-25T02:22:25.382Z,5.30
2018-04-25T02:24:52.829Z,6.30
2018-04-25T02:27:20.289Z,6.33
2018-04-25T02:29:47.727Z,5.83
2018-04-25T02:32:15.183Z,5.93
2018-04-25T02:34:42.626Z,5.67
2018-04-25T02:37:10.836Z,5.63
2018-04-25T02:39:38.297Z,5.83
2018-04-25T02:42:05.741Z,5.60
2018-04-25T02:44:33.188Z,7.17
2018-04-25T02:47:00.628Z,5.73
2018-04-25T02:49:28.845Z,6.80
2018-04-25T02:51:56.293Z,6.07
2018-04-25T02:54:23.742Z,5.53
2018-04-25T02:56:51.191Z,5.80
2018-04-25T02:59:18.644Z,6.70
2018-04-25T03:01:46.852Z,6.87
2018-04-25T03:04:14.302Z,5.37
2018-04-25T03:06:41.746Z,6.57
2018-04-25T03:09:09.204Z,5.50
2018-04-25T03:11:36.640Z,4.87
2018-04-25T03:14:04.863Z,5.97
2018-04-25T03:16:32.311Z,5.70
2018-04-25T03:18:59.762Z,6.17
2018-04-25T03:21:27.199Z,5.80
2018-04-25T03:23:54.656Z,5.73
2018-04-25T03:26:22.099Z,6.20
2018-04-25T03:28:50.327Z,6.20
2018-04-25T03:31:17.767Z,6.50
2018-04-25T03:33:45.219Z,6.07
2018-04-25T03:36:13.236Z,6.77
2018-04-25T03:38:40.689Z,6.50
2018-04-25T03:41:08.205Z,6.00
2018-04-25T03:43:35.580Z,6.30
2018-04-25T03:46:03.038Z,6.87
2018-04-25T03:48:30.476Z,5.60
2018-04-25T03:50:57.927Z,6.43
2018-04-25T03:53:25.365Z,6.20
2018-04-25T03:55:53.616Z,5.90
2018-04-25T03:58:21.051Z,5.77
2018-04-25T04:00:48.504Z,5.50
2018-04-25T04:03:15.948Z,6.23
2018-04-25T04:05:43.396Z,6.20
2018-04-25T04:08:10.839Z,6.57
2018-04-25T04:10:38.300Z,7.30
2018-04-25T04:13:05.761Z,5.90
2018-04-25T04:15:33.958Z,5.87
2018-04-25T04:18:01.411Z,5.90
2018-04-25T04:20:28.863Z,5.70
2018-04-25T04:22:56.294Z,5.93
2018-04-25T04:25:24.576Z,5.57
2018-04-25T04:27:52.030Z,6.00
2018-04-25T04:30:20.247Z,5.50
2018-04-25T04:32:47.687Z,7.17
2018-04-25T04:35:15.144Z,7.80
2018-04-25T04:37:42.594Z,6.40
2018-04-25T04:40:10.044Z,6.00
2018-04-25T04:42:37.500Z,5.80
2018-04-25T04:45:04.946Z,6.63
2018-04-25T04:47:32.406Z,6.30
2018-04-25T04:50:00.637Z,6.43
2018-04-25T04:52:28.151Z,5.60
2018-04-25T04:54:55.591Z,5.13
2018-04-25T04:57:23.820Z,7.13
2018-04-25T04:59:51.261Z,6.40
2018-04-25T05:02:18.717Z,5.97
2018-04-25T05:04:47.904Z,5.70
2018-04-25T05:07:15.362Z,6.03
2018-04-25T05:09:42.802Z,5.57
2018-04-25T05:12:11.025Z,5.67
2018-04-25T05:14:38.674Z,5.60
2018-04-25T05:17:06.121Z,5.57
2018-04-25T05:19:33.566Z,5.77
2018-04-25T05:22:01.275Z,5.40
2018-04-25T05:24:28.745Z,5.77
2018-04-25T05:26:58.138Z,6.10
2018-04-25T05:29:25.594Z,5.03
2018-04-25T05:31:53.081Z,5.13
2018-04-25T05:34:20.498Z,5.07
2018-04-25T05:36:47.964Z,5.27
2018-04-25T05:39:15.430Z,5.00
2018-04-25T05:41:43.661Z,5.10
2018-04-25T05:44:11.099Z,5.00
2018-04-25T05:46:38.558Z,5.20
2018-04-25T05:49:06.758Z,5.60
2018-04-25T05:51:34.210Z,5.47
2018-04-25T05:54:01.659Z,5.70
2018-04-25T05:56:29.103Z,5.63
2018-04-25T05:58:57.563Z,5.60
2018-04-25T06:01:25.791Z,6.00
2018-04-25T06:03:53.243Z,5.53
2018-04-25T06:06:20.684Z,5.23
2018-04-25T06:08:48.127Z,5.57
2018-04-25T06:11:15.592Z,5.17
2018-04-25T06:13:43.030Z,5.63
2018-04-25T06:16:11.239Z,5.10
2018-04-25T06:18:38.704Z,5.90
2018-04-25T06:21:06.143Z,5.30
2018-04-25T06:23:33.600Z,5.80
2018-04-25T06:26:01.034Z,5.40
2018-04-25T06:28:29.252Z,5.40
2018-04-25T06:30:56.692Z,5.80
2018-04-25T06:33:24.136Z,6.27
2018-04-25T06:35:52.339Z,6.23
2018-04-25T06:38:19.795Z,5.77
2018-04-25T06:40:47.240Z,5.70
2018-04-25T06:43:14.697Z,6.77
2018-04-25T06:45:42.140Z,6.17
2018-04-25T06:48:09.596Z,5.90
2018-04-25T06:50:37.818Z,5.93
2018-04-25T06:53:05.251Z,5.40
2018-04-25T06:55:32.692Z,6.00
2018-04-25T06:58:00.146Z,6.80
2018-04-25T07:00:27.587Z,6.00
2018-04-25T07:02:55.813Z,6.10
2018-04-25T07:05:23.263Z,6.83
2018-04-25T07:07:50.720Z,6.47
2018-04-25T07:10:18.161Z,7.33
2018-04-25T07:12:45.610Z,6.33
2018-04-25T07:15:13.060Z,8.33
2018-04-25T07:17:41.281Z,7.67
2018-04-25T07:20:08.724Z,6.63
2018-04-25T07:22:36.183Z,9.00
2018-04-25T07:25:03.632Z,7.27
2018-04-25T07:27:31.087Z,7.03
2018-04-25T07:29:58.535Z,6.80
2018-04-25T07:32:26.015Z,6.80
2018-04-25T07:34:53.462Z,7.53
2018-04-25T07:37:23.275Z,6.63
2018-04-25T07:39:50.735Z,6.63
2018-04-25T07:42:18.175Z,7.20
2018-04-25T07:44:45.629Z,6.67
2018-04-25T07:47:13.067Z,7.67
2018-04-25T07:49:41.288Z,6.60
2018-04-25T07:52:08.740Z,7.50
2018-04-25T07:54:36.193Z,7.00
2018-04-25T07:57:03.641Z,6.90
2018-04-25T07:59:31.100Z,6.70
2018-04-25T08:01:58.535Z,6.43
2018-04-25T08:04:25.995Z,6.37
2018-04-25T08:06:53.436Z,6.60
2018-04-25T08:09:21.656Z,7.13
2018-04-25T08:11:49.096Z,6.70
2018-04-25T08:14:28.505Z,6.80
2018-04-25T08:20:09.512Z,6.30
2018-04-25T08:22:39.489Z,5.77
2018-04-25T08:25:06.940Z,6.13
2018-04-25T08:27:34.394Z,6.97
2018-04-25T08:30:01.851Z,6.17
2018-04-25T08:32:29.303Z,7.40
2018-04-25T08:34:56.767Z,7.20
2018-04-25T08:37:24.203Z,6.73
2018-04-25T08:39:51.656Z,6.83
2018-04-25T08:42:19.100Z,6.90
2018-04-25T08:44:46.592Z,7.60
2018-04-25T08:47:14.009Z,7.17
2018-04-25T08:49:42.224Z,7.60
2018-04-25T08:52:09.669Z,7.60
2018-04-25T08:54:37.127Z,6.97
2018-04-25T08:57:04.574Z,7.20
2018-04-25T08:59:32.027Z,6.80
2018-04-25T09:01:59.480Z,7.43
2018-04-25T09:04:26.939Z,7.90
2018-04-25T09:06:54.391Z,6.30
2018-04-25T09:09:21.848Z,6.13
2018-04-25T09:11:49.295Z,7.67
2018-04-25T09:14:17.523Z,7.63
2018-04-25T09:16:44.956Z,7.40
2018-04-25T09:19:12.396Z,6.63
2018-04-25T09:21:39.856Z,6.63
2018-04-25T09:24:07.296Z,7.00
2018-04-25T09:26:35.514Z,7.43
2018-04-25T09:29:02.965Z,7.20
2018-04-25T09:31:30.431Z,6.83
2018-04-25T09:33:57.875Z,6.90
2018-04-25T09:36:25.329Z,6.63
2018-04-25T09:38:52.767Z,7.13
2018-04-25T09:41:20.230Z,7.30
2018-04-25T09:43:47.679Z,7.50
2018-04-25T09:46:15.136Z,7.30
2018-04-25T09:48:42.580Z,7.13
2018-04-25T09:51:10.795Z,7.80
2018-04-25T09:53:38.238Z,7.57
2018-04-25T09:56:05.703Z,6.97
2018-04-25T09:58:33.152Z,7.20
2018-04-25T10:01:00.618Z,7.00
2018-04-25T10:03:28.063Z,7.10
2018-04-25T10:05:55.524Z,8.03
2018-04-25T10:08:22.988Z,6.60
2018-04-25T10:10:50.487Z,6.73
2018-04-25T10:13:17.875Z,6.60
2018-04-25T10:15:46.098Z,6.43
2018-04-25T10:18:13.543Z,6.47
2018-04-25T10:20:40.992Z,6.60
2018-04-25T10:23:08.468Z,6.23
2018-04-25T10:25:35.960Z,7.30
2018-04-25T10:28:03.366Z,7.40
2018-04-25T10:30:30.809Z,7.00
2018-04-25T10:32:58.270Z,6.30
2018-04-25T10:35:25.704Z,5.90
2018-04-25T10:37:54.017Z,6.10
2018-04-25T10:40:21.463Z,8.00
2018-04-25T10:42:48.911Z,6.60
2018-04-25T10:45:16.358Z,6.87
2018-04-25T10:47:44.579Z,6.73
2018-04-25T10:50:12.023Z,6.47
2018-04-25T10:52:39.476Z,6.20
2018-04-25T10:55:06.920Z,7.73
2018-04-25T10:57:34.371Z,6.40
2018-04-25T11:00:01.815Z,6.13
2018-04-25T11:02:30.088Z,6.63
2018-04-25T11:04:58.243Z,7.13
2018-04-25T11:07:25.793Z,7.37
2018-04-25T11:09:53.153Z,6.13
2018-04-25T11:12:20.612Z,6.23
2018-04-25T11:14:48.049Z,6.97
2018-04-25T11:17:15.516Z,6.60
2018-04-25T11:19:42.960Z,6.60
2018-04-25T11:22:10.412Z,6.10
2018-04-25T11:24:37.893Z,6.10
2018-04-25T11:27:05.340Z,6.10
2018-04-25T11:29:32.806Z,6.03
2018-04-25T11:32:00.331Z,5.70
2018-04-25T11:34:28.467Z,6.80
2018-04-25T11:36:56.679Z,5.57
2018-04-25T11:39:24.136Z,6.93
2018-04-25T11:41:51.574Z,5.67
2018-04-25T11:44:19.069Z,6.50
2018-04-25T11:46:46.508Z,5.83
2018-04-25T11:49:13.966Z,5.30
2018-04-25T11:51:41.407Z,6.20
2018-04-25T11:54:08.867Z,31.63
2018-04-25T11:56:37.095Z,6.10
2018-04-25T11:59:04.548Z,6.60
2018-04-25T12:01:31.997Z,5.77
2018-04-25T12:03:59.459Z,5.57
2018-04-25T12:06:26.936Z,5.90
2018-04-25T12:08:54.399Z,5.83
2018-04-25T12:11:21.847Z,5.40
2018-04-25T12:13:49.296Z,5.37
2018-04-25T12:16:16.748Z,5.10
2018-04-25T12:18:44.234Z,6.93
2018-04-25T12:21:11.666Z,6.20
2018-04-25T12:23:39.118Z,6.43
2018-04-25T12:26:06.560Z,6.70
2018-04-25T12:28:34.016Z,6.30
2018-04-25T12:31:01.464Z,6.23
2018-04-25T12:33:28.904Z,6.47
2018-04-25T12:35:57.143Z,6.30
2018-04-25T12:38:24.598Z,7.37
2018-04-25T12:40:52.055Z,5.80
2018-04-25T12:43:19.577Z,6.47
2018-04-25T12:45:47.025Z,5.70
2018-04-25T12:48:14.462Z,6.33
2018-04-25T12:50:42.688Z,6.47
2018-04-25T12:53:10.182Z,6.53
2018-04-25T12:55:37.631Z,6.03
2018-04-25T12:58:05.186Z,6.53
2018-04-25T13:00:32.663Z,6.10
2018-04-25T13:03:00.103Z,5.97
2018-04-25T13:05:27.652Z,6.03
2018-04-25T13:07:55.190Z,6.47
2018-04-25T13:10:22.648Z,6.37
2018-04-25T13:12:50.091Z,6.23
2018-04-25T13:15:17.555Z,6.60
2018-04-25T13:17:45.000Z,6.30
2018-04-25T13:20:12.451Z,6.03
2018-04-25T13:22:39.890Z,6.60
2018-04-25T13:25:08.119Z,6.27
2018-04-25T13:27:35.561Z,6.50
2018-04-25T13:30:03.016Z,5.40
2018-04-25T13:32:30.463Z,4.87
2018-04-25T13:34:57.928Z,6.07
2018-04-25T13:37:25.360Z,5.63
2018-04-25T13:39:53.567Z,5.47
2018-04-25T13:42:21.024Z,6.07
2018-04-25T13:44:48.479Z,4.97
2018-04-25T13:47:15.940Z,5.77
2018-04-25T13:49:43.397Z,6.03
2018-04-25T13:52:10.842Z,5.40
2018-04-25T13:54:38.304Z,5.80
2018-04-25T13:57:05.747Z,5.70
2018-04-25T13:59:33.203Z,5.80
2018-04-25T14:02:01.437Z,5.47
2018-04-25T14:04:28.871Z,5.33
2018-04-25T14:06:56.345Z,5.63
2018-04-25T14:09:23.788Z,5.80
2018-04-25T14:11:51.265Z,5.30
2018-04-25T14:14:18.708Z,5.93
2018-04-25T14:16:46.167Z,5.57
2018-04-25T14:19:13.617Z,5.60
2018-04-25T14:21:41.079Z,6.30
2018-04-25T14:24:08.523Z,6.17
2018-04-25T14:26:35.994Z,6.57
2018-04-25T14:29:03.457Z,6.10
2018-04-25T14:31:30.911Z,6.13
2018-04-25T14:33:58.367Z,5.80
2018-04-25T14:36:25.903Z,5.37
2018-04-25T14:38:53.376Z,5.70
2018-04-25T14:41:20.838Z,5.00
2018-04-25T14:43:48.336Z,5.90
2018-04-25T14:46:15.771Z,5.33
2018-04-25T14:48:43.231Z,6.50
2018-04-25T14:51:10.680Z,5.30
2018-04-25T14:53:38.135Z,5.60
2018-04-25T14:56:05.588Z,6.60
2018-04-25T14:58:33.040Z,6.30
2018-04-25T15:01:00.494Z,5.60
2018-04-25T15:03:27.955Z,6.00
2018-04-25T15:05:55.401Z,5.87
2018-04-25T15:08:22.875Z,6.30
2018-04-25T15:10:50.329Z,5.43
2018-04-25T15:13:17.780Z,6.23
2018-04-25T15:15:45.991Z,6.23
2018-04-25T15:18:13.444Z,6.70
2018-04-25T15:20:40.908Z,6.03
2018-04-25T15:23:08.364Z,6.87
2018-04-25T15:25:35.800Z,5.40
2018-04-25T15:28:03.256Z,6.20
2018-04-25T15:30:30.695Z,7.37
2018-04-25T15:32:58.154Z,6.00
2018-04-25T15:35:25.604Z,5.53
2018-04-25T15:37:53.121Z,6.60
2018-04-25T15:40:20.523Z,5.63
2018-04-25T15:42:47.982Z,6.17
2018-04-25T15:45:15.439Z,6.10
2018-04-25T15:47:42.898Z,6.87
2018-04-25T15:50:10.359Z,6.40
2018-04-25T15:52:37.814Z,5.37
2018-04-25T15:55:05.263Z,6.60
2018-04-25T15:57:32.721Z,6.00
2018-04-25T16:00:00.175Z,6.30
2018-04-25T16:02:27.655Z,7.60
2018-04-25T16:04:55.148Z,6.70
2018-04-25T16:07:23.469Z,6.47
2018-04-25T16:09:50.919Z,6.30
2018-04-25T16:12:18.395Z,5.70
2018-04-25T16:14:45.849Z,6.17
2018-04-25T16:17:13.368Z,5.77
2018-04-25T16:19:40.749Z,6.03
2018-04-25T16:22:08.204Z,5.90
2018-04-25T16:24:35.659Z,5.73
2018-04-25T16:27:03.100Z,6.07
2018-04-25T16:29:30.559Z,6.37
2018-04-25T16:31:58.793Z,5.80
2018-04-25T16:34:26.445Z,5.90
2018-04-25T16:36:54.018Z,5.70
2018-04-25T16:39:21.455Z,8.07
2018-04-25T16:41:48.903Z,6.27
2018-04-25T16:44:16.363Z,6.33
2018-04-25T16:46:43.803Z,6.60
2018-04-25T16:49:11.255Z,6.00
2018-04-25T16:51:38.696Z,5.40
2018-04-25T16:54:06.906Z,5.07
2018-04-25T16:56:34.352Z,5.07
2018-04-25T16:59:01.807Z,4.73
2018-04-25T17:01:29.261Z,5.30
2018-04-25T17:03:56.711Z,5.17
2018-04-25T17:06:24.171Z,5.80
2018-04-25T17:08:51.620Z,5.50
2018-04-25T17:11:19.084Z,5.40
2018-04-25T17:13:46.555Z,5.10
2018-04-25T17:16:14.087Z,4.83
2018-04-25T17:18:42.374Z,5.10
2018-04-25T17:21:09.853Z,5.23
2018-04-25T17:23:37.306Z,4.97
2018-04-25T17:26:04.765Z,5.10
2018-04-25T17:28:32.465Z,5.13
2018-04-25T17:30:59.915Z,4.80
2018-04-25T17:33:27.370Z,5.93
2018-04-25T17:35:54.819Z,5.20
2018-04-25T17:38:22.263Z,5.60
2018-04-25T17:40:49.710Z,6.00
2018-04-25T17:43:17.165Z,4.80
2018-04-25T17:45:44.617Z,5.30
2018-04-25T17:48:12.060Z,5.40
2018-04-25T17:50:39.513Z,4.77
2018-04-25T17:53:07.720Z,4.03
2018-04-25T17:55:35.184Z,4.77
2018-04-25T17:58:02.627Z,4.07
2018-04-25T18:00:30.080Z,4.57
2018-04-25T18:02:57.531Z,3.50
2018-04-25T18:05:24.979Z,3.30
2018-04-25T18:07:52.419Z,3.43
2018-04-25T18:10:20.643Z,3.23
2018-04-25T18:12:48.092Z,3.50
2018-04-25T18:15:15.559Z,3.30
2018-04-25T18:17:43.011Z,2.80
2018-04-25T18:20:10.468Z,3.00
2018-04-25T18:22:37.939Z,2.90
2018-04-25T18:25:06.162Z,2.47
2018-04-25T18:27:34.395Z,2.80
2018-04-25T18:30:01.834Z,3.37
2018-04-25T18:32:29.816Z,2.57
2018-04-25T18:34:57.273Z,2.43
2018-04-25T18:37:24.785Z,2.70
2018-04-25T18:39:52.166Z,2.33
2018-04-25T18:42:19.770Z,2.43
2018-04-25T18:44:47.202Z,2.67
2018-04-25T18:47:14.673Z,3.00
2018-04-25T18:49:42.140Z,3.07
2018-04-25T18:52:09.592Z,2.57
2018-04-25T18:54:37.102Z,2.60
2018-04-25T18:57:04.618Z,3.03
2018-04-25T18:59:32.867Z,3.07
2018-04-25T19:02:00.358Z,2.47
2018-04-25T19:04:35.948Z,2.70
2018-04-25T19:07:03.459Z,2.80
2018-04-25T19:09:30.905Z,3.00
2018-04-25T19:11:59.131Z,3.30
2018-04-25T19:14:26.588Z,2.60
2018-04-25T19:16:54.910Z,2.80
2018-04-25T19:19:22.343Z,3.20
2018-04-25T19:21:49.808Z,2.70
2018-04-25T19:24:17.244Z,2.60
2018-04-25T19:26:44.692Z,2.80
2018-04-25T19:29:12.147Z,2.60
2018-04-25T19:31:39.600Z,2.80
2018-04-25T19:34:07.825Z,2.53
2018-04-25T19:36:35.256Z,2.20
2018-04-25T19:39:02.719Z,2.43
2018-04-25T19:41:30.165Z,2.40
2018-04-25T19:43:57.616Z,2.60
2018-04-25T19:46:25.067Z,2.50
2018-04-25T19:48:52.525Z,2.60
2018-04-25T19:51:19.972Z,2.73
2018-04-25T19:53:48.184Z,2.50
2018-04-25T19:56:15.632Z,2.50
2018-04-25T19:58:43.076Z,2.87
2018-04-25T20:01:10.530Z,2.90
2018-04-25T20:03:37.976Z,2.60
2018-04-25T20:06:05.425Z,2.50
2018-04-25T20:08:33.033Z,2.10
2018-04-25T20:11:00.465Z,2.27
2018-04-25T20:13:27.924Z,2.33
2018-04-25T20:15:55.359Z,2.30
2018-04-25T20:18:23.575Z,2.70
2018-04-25T20:20:51.015Z,2.50
2018-04-25T20:23:18.475Z,1.73
2018-04-25T20:25:45.919Z,2.60
2018-04-25T20:28:13.478Z,2.23
2018-04-25T20:30:41.683Z,2.40
2018-04-25T20:33:09.139Z,2.07
2018-04-25T20:35:36.613Z,2.33
2018-04-25T20:38:04.051Z,1.90
2018-04-25T20:40:31.492Z,2.00
2018-04-25T20:42:58.944Z,2.20
2018-04-25T20:45:27.148Z,2.03
2018-04-25T20:47:54.600Z,2.40
2018-04-25T20:50:22.055Z,2.27
2018-04-25T20:52:49.492Z,2.40
2018-04-25T20:55:16.995Z,2.60
2018-04-25T20:57:44.426Z,2.20
2018-04-25T21:00:12.107Z,2.70
2018-04-25T21:02:39.630Z,2.30
2018-04-25T21:05:07.001Z,2.17
2018-04-25T21:07:34.475Z,2.20
2018-04-25T21:10:01.924Z,1.77
2018-04-25T21:12:29.363Z,2.43
2018-04-25T21:14:56.826Z,3.00
2018-04-25T21:17:24.276Z,2.80
2018-04-25T21:19:52.767Z,2.60
2018-04-25T21:22:20.201Z,2.30
2018-04-25T21:24:48.417Z,2.10
2018-04-25T21:27:15.852Z,2.03
2018-04-25T21:29:43.312Z,2.13
2018-04-25T21:32:10.805Z,1.77
2018-04-25T21:34:38.243Z,2.03
2018-04-25T21:37:05.690Z,2.10
2018-04-25T21:39:33.144Z,1.87
2018-04-25T21:42:00.595Z,2.37
2018-04-25T21:44:28.048Z,1.90
2018-04-25T21:46:55.491Z,1.93
2018-04-25T21:49:23.691Z,1.80
2018-04-25T21:51:51.144Z,2.20
2018-04-25T21:54:18.581Z,2.47
2018-04-25T21:56:46.801Z,2.20
2018-04-25T21:59:14.235Z,1.97
2018-04-25T22:01:41.688Z,2.17
2018-04-25T22:04:09.125Z,2.13
2018-04-25T22:06:37.346Z,1.80
2018-04-25T22:09:04.779Z,2.13
2018-04-25T22:11:32.231Z,2.07
2018-04-25T22:13:59.664Z,1.80
2018-04-25T22:16:27.883Z,1.70
2018-04-25T22:18:55.329Z,2.10
2018-04-25T22:21:22.783Z,2.40
2018-04-25T22:23:50.223Z,2.13
2018-04-25T22:26:18.436Z,1.80
2018-04-25T22:28:45.883Z,2.07
2018-04-25T22:31:13.360Z,1.80
2018-04-25T22:33:40.795Z,1.97
2018-04-25T22:36:08.247Z,1.97
2018-04-25T22:38:35.697Z,1.80
2018-04-25T22:41:03.149Z,2.00
2018-04-25T22:43:30.594Z,1.90
2018-04-25T22:45:58.048Z,1.43
2018-04-25T22:48:26.252Z,2.00
2018-04-25T22:50:53.687Z,1.80
2018-04-25T22:53:21.138Z,1.77
2018-04-25T22:55:49.338Z,1.80
2018-04-25T22:58:16.810Z,2.03
2018-04-25T23:00:44.249Z,2.20
2018-04-25T23:03:11.703Z,1.63
2018-04-25T23:05:39.142Z,1.70
2018-04-25T23:08:07.414Z,1.87
2018-04-25T23:10:34.805Z,1.83
2018-04-25T23:13:02.248Z,1.60
2018-04-25T23:15:29.688Z,1.83
2018-04-25T23:17:57.899Z,2.17
2018-04-25T23:20:25.340Z,1.90
2018-04-25T23:22:52.787Z,2.07
2018-04-25T23:25:20.227Z,2.00
2018-04-25T23:27:48.448Z,2.20
2018-04-25T23:30:15.887Z,2.13
2018-04-25T23:32:43.351Z,1.87
2018-04-25T23:35:10.788Z,2.23
2018-04-25T23:37:38.244Z,2.07
2018-04-25T23:40:06.439Z,2.17
2018-04-25T23:42:33.902Z,2.20
2018-04-25T23:45:01.346Z,2.20
2018-04-25T23:47:28.798Z,2.10
2018-04-25T23:49:56.236Z,1.90
2018-04-25T23:52:24.448Z,2.50
2018-04-25T23:54:51.899Z,2.23
2018-04-25T23:57:19.351Z,2.27
2018-04-25T23:59:46.800Z,2.27
